createdAt,value
2016-09-18T00:02:28.129Z,"    0"
2016-09-18T00:07:24.680Z,"    0"
2016-09-18T00:12:21.805Z,"    0"
2016-09-18T00:17:18.867Z,"    0"
2016-09-18T00:22:15.503Z,"    0"
2016-09-18T00:27:12.165Z,"    0"
2016-09-18T00:32:08.698Z,"    0"
2016-09-18T00:37:05.272Z,"    0"
2016-09-18T00:42:02.259Z,"    0"
2016-09-18T00:46:58.794Z,"    0"
2016-09-18T00:51:55.422Z,"    0"
2016-09-18T00:56:51.807Z,"    0"
2016-09-18T01:01:48.782Z,"    0"
2016-09-18T01:06:45.150Z,"    0"
2016-09-18T01:11:41.678Z,"    0"
2016-09-18T01:16:38.348Z,"    0"
2016-09-18T01:21:35.015Z,"    0"
2016-09-18T01:26:31.620Z,"    0"
2016-09-18T01:31:28.011Z,"    0"
2016-09-18T01:36:24.677Z,"    0"
2016-09-18T01:41:21.358Z,"    0"
2016-09-18T01:46:17.935Z,"    0"
2016-09-18T01:51:14.732Z,"    0"
2016-09-18T01:56:13.819Z,"    0"
2016-09-18T02:01:09.820Z,"    0"
2016-09-18T02:06:06.401Z,"    0"
2016-09-18T02:11:02.967Z,"    0"
2016-09-18T02:16:00.038Z,"    0"
2016-09-18T02:20:59.130Z,"    0"
2016-09-18T02:25:55.003Z,"    0"
2016-09-18T02:30:51.556Z,"    0"
2016-09-18T02:35:48.725Z,"    0"
2016-09-18T02:40:45.263Z,"    0"
2016-09-18T02:45:44.264Z,"    0"
2016-09-18T02:50:40.384Z,"    0"
2016-09-18T02:55:37.060Z,"    0"
2016-09-18T03:00:33.728Z,"    0"
2016-09-18T03:05:30.324Z,"    0"
2016-09-18T03:10:26.986Z,"    0"
2016-09-18T03:15:23.480Z,"    0"
2016-09-18T03:20:20.358Z,"    0"
2016-09-18T03:25:17.253Z,"    0"
2016-09-18T03:30:13.831Z,"    0"
2016-09-18T03:35:10.684Z,"    0"
2016-09-18T03:40:06.940Z,"    0"
2016-09-18T03:45:03.791Z,"    0"
2016-09-18T03:50:00.746Z,"    0"
2016-09-18T03:54:57.707Z,"    0"
2016-09-18T03:59:54.330Z,"    0"
2016-09-18T04:04:50.901Z,"    0"
2016-09-18T04:09:47.397Z,"    0"
2016-09-18T04:14:44.016Z,"    0"
2016-09-18T04:19:40.525Z,"    0"
2016-09-18T04:24:37.125Z,"    0"
2016-09-18T04:29:33.719Z,"    0"
2016-09-18T04:34:30.257Z,"    0"
2016-09-18T04:39:26.567Z,"    0"
2016-09-18T04:44:23.319Z,"    0"
2016-09-18T04:49:20.192Z,"    0"
2016-09-18T04:54:16.707Z,"    0"
2016-09-18T04:59:13.208Z,"    4"
2016-09-18T05:04:10.088Z,"    4"
2016-09-18T05:09:06.815Z,"    4"
2016-09-18T05:14:03.543Z,"   12"
2016-09-18T05:19:00.036Z,"   16"
2016-09-18T05:23:56.652Z,"   20"
2016-09-18T05:28:53.229Z,"   20"
2016-09-18T05:33:49.601Z,"   28"
2016-09-18T05:38:46.517Z,"   40"
2016-09-18T05:43:43.187Z,"   44"
2016-09-18T05:48:39.751Z,"   44"
2016-09-18T05:53:36.229Z,"   52"
2016-09-18T05:58:33.344Z,"   52"
2016-09-18T06:03:29.662Z,"   80"
2016-09-18T06:08:26.141Z,"  120"
2016-09-18T06:13:23.178Z,"  112"
2016-09-18T06:18:19.814Z,"   88"
2016-09-18T06:23:16.504Z,"   88"
2016-09-18T06:28:13.000Z,"  108"
2016-09-18T06:33:09.828Z,"  184"
2016-09-18T06:38:06.224Z,"  256"
2016-09-18T06:43:03.226Z,"  260"
2016-09-18T06:47:59.837Z,"  260"
2016-09-18T06:52:56.331Z,"  240"
2016-09-18T06:57:52.961Z,"  336"
2016-09-18T07:02:49.519Z,"  276"
2016-09-18T07:12:46.615Z,"  452"
2016-09-18T07:17:43.012Z,"  500"
2016-09-18T07:22:40.083Z,"  504"
2016-09-18T07:27:37.385Z,"  376"
2016-09-18T07:32:33.795Z,"  376"
2016-09-18T07:37:30.418Z,"  384"
2016-09-18T07:42:27.369Z,"  508"
2016-09-18T07:47:23.983Z,"  532"
2016-09-18T07:52:20.763Z,"   80"
2016-09-18T07:57:17.670Z,"  336"
2016-09-18T08:02:14.497Z,"  520"
2016-09-18T08:07:11.279Z,"  652"
2016-09-18T08:12:07.801Z,"  828"
2016-09-18T08:17:04.604Z,"  620"
2016-09-18T08:22:02.442Z,"  932"
2016-09-18T08:26:59.878Z," 9604"
2016-09-18T08:31:55.520Z," 9408"
2016-09-18T08:36:51.615Z," 7436"
2016-09-18T08:41:47.724Z,11736
2016-09-18T08:46:44.560Z,11092
2016-09-18T08:51:42.077Z,12304
2016-09-18T08:56:38.816Z,13076
2016-09-18T09:01:35.522Z,11828
2016-09-18T09:06:32.504Z,10748
2016-09-18T09:11:28.854Z,10700
2016-09-18T09:16:25.587Z," 9392"
2016-09-18T09:21:22.358Z," 7636"
2016-09-18T09:26:18.902Z," 9368"
2016-09-18T09:31:16.105Z,11292
2016-09-18T09:36:13.446Z," 8872"
2016-09-18T09:41:10.286Z," 9372"
2016-09-18T09:46:07.235Z,10688
2016-09-18T09:51:05.672Z,10320
2016-09-18T09:56:02.176Z,11448
2016-09-18T10:00:59.180Z," 7320"
2016-09-18T10:05:55.938Z,13760
2016-09-18T10:10:52.938Z,13752
2016-09-18T10:15:50.381Z,14136
2016-09-18T10:20:47.161Z,14820
2016-09-18T10:25:44.375Z,13224
2016-09-18T10:30:41.095Z,16672
2016-09-18T10:35:38.488Z,13104
2016-09-18T10:40:37.303Z,30848
2016-09-18T10:45:37.560Z,13032
2016-09-18T10:50:33.785Z,12824
2016-09-18T10:55:33.247Z,53664
2016-09-18T11:00:34.659Z,19424
2016-09-18T11:05:37.734Z,64832
2016-09-18T11:10:35.434Z,70400
2016-09-18T11:15:31.479Z,10364
2016-09-18T11:20:33.059Z,64128
2016-09-18T11:25:31.985Z,62208
2016-09-18T11:30:31.495Z,40192
2016-09-18T11:35:24.749Z,22080
2016-09-18T11:40:16.257Z," 5080"
2016-09-18T11:45:12.598Z," 9164"
2016-09-18T11:50:08.731Z,86560
2016-09-18T11:55:11.824Z,72832
2016-09-18T12:00:11.906Z,71200
2016-09-18T12:05:03.700Z," 7072"
2016-09-18T12:09:55.112Z," 6980"
2016-09-18T12:14:49.681Z," 6076"
2016-09-18T12:19:44.627Z,16512
2016-09-18T12:24:45.864Z," 9364"
2016-09-18T12:29:40.464Z,17232
2016-09-18T12:34:37.446Z," 8644"
2016-09-18T12:39:33.388Z,10492
2016-09-18T12:44:29.910Z,11148
2016-09-18T12:49:26.666Z," 3516"
2016-09-18T12:54:22.726Z," 3996"
2016-09-18T12:59:18.858Z," 7212"
2016-09-18T13:04:15.647Z," 5812"
2016-09-18T13:09:12.128Z," 7036"
2016-09-18T13:14:09.475Z,10924
2016-09-18T13:19:06.888Z," 8652"
2016-09-18T13:24:03.511Z," 5996"
2016-09-18T13:28:59.633Z," 7432"
2016-09-18T13:33:57.322Z," 5152"
2016-09-18T13:38:53.898Z," 3788"
2016-09-18T13:43:50.271Z," 5588"
2016-09-18T13:48:47.738Z," 8136"
2016-09-18T13:53:45.189Z," 7800"
2016-09-18T13:58:45.893Z,11864
2016-09-18T14:03:42.195Z," 3076"
2016-09-18T14:08:38.337Z," 3500"
2016-09-18T14:13:34.749Z," 4268"
2016-09-18T14:18:31.024Z," 6256"
2016-09-18T14:23:27.746Z," 6496"
2016-09-18T14:28:24.938Z," 6880"
2016-09-18T14:33:21.885Z," 4444"
2016-09-18T14:38:19.678Z," 4856"
2016-09-18T14:43:16.136Z," 5764"
2016-09-18T14:48:12.792Z," 5024"
2016-09-18T14:53:09.424Z," 4652"
2016-09-18T14:58:07.364Z," 4488"
2016-09-18T15:03:03.767Z," 4520"
2016-09-18T15:08:03.617Z," 4344"
2016-09-18T15:12:59.448Z," 3564"
2016-09-18T15:17:56.002Z," 2664"
2016-09-18T15:22:58.332Z," 3024"
2016-09-18T15:27:54.919Z," 3840"
2016-09-18T15:32:51.482Z," 3764"
2016-09-18T15:37:48.292Z," 3568"
2016-09-18T15:42:45.933Z," 3256"
2016-09-18T15:47:42.631Z," 2860"
2016-09-18T15:52:39.661Z," 2284"
2016-09-18T16:02:38.852Z," 2076"
2016-09-18T16:07:36.610Z," 2008"
2016-09-18T16:12:33.044Z," 2092"
2016-09-18T16:17:29.643Z," 1828"
2016-09-18T16:22:26.384Z," 1632"
2016-09-18T16:27:23.467Z," 1344"
2016-09-18T16:32:20.067Z," 1312"
2016-09-18T16:37:17.491Z," 1240"
2016-09-18T16:42:13.769Z," 1204"
2016-09-18T16:47:10.074Z," 1116"
2016-09-18T16:52:06.941Z,"  988"
2016-09-18T16:57:03.681Z,"  772"
2016-09-18T17:02:00.279Z,"  652"
2016-09-18T17:06:56.723Z,"  596"
2016-09-18T17:11:53.474Z,"  480"
2016-09-18T17:16:49.877Z,"  392"
2016-09-18T17:21:46.507Z,"  292"
2016-09-18T17:26:42.715Z,"  228"
2016-09-18T17:31:39.196Z,"  172"
2016-09-18T17:36:36.476Z,"  112"
2016-09-18T17:41:32.922Z,"   60"
2016-09-18T17:46:29.222Z,"   32"
2016-09-18T17:51:25.790Z,"   16"
2016-09-18T17:56:22.274Z,"    4"
2016-09-18T18:01:19.119Z,"    4"
2016-09-18T18:06:18.843Z,"    0"
2016-09-18T18:11:14.893Z,"    0"
2016-09-18T18:16:11.937Z,"    0"
2016-09-18T18:21:08.383Z,"    0"
2016-09-18T18:26:04.875Z,"    0"
2016-09-18T18:31:03.966Z,"    0"
2016-09-18T18:35:59.927Z,"    0"
2016-09-18T18:40:56.293Z,"    0"
2016-09-18T18:45:53.087Z,"    0"
2016-09-18T18:50:49.840Z,"    0"
2016-09-18T18:55:47.712Z,"    0"
2016-09-18T19:00:43.993Z,"    0"
2016-09-18T19:05:40.532Z,"    0"
2016-09-18T19:10:37.147Z,"    0"
2016-09-18T19:15:33.522Z,"    0"
2016-09-18T19:20:30.103Z,"    0"
2016-09-18T19:25:26.325Z,"    0"
2016-09-18T19:30:22.874Z,"    0"
2016-09-18T19:35:19.928Z,"    0"
2016-09-18T19:40:16.433Z,"    0"
2016-09-18T19:45:13.680Z,"    0"
2016-09-18T19:50:09.945Z,"    0"
2016-09-18T19:55:06.533Z,"    0"
2016-09-18T20:00:03.568Z,"    0"
2016-09-18T20:05:00.263Z,"    0"
2016-09-18T20:09:56.986Z,"    0"
2016-09-18T20:14:53.358Z,"    0"
2016-09-18T20:19:49.505Z,"    0"
2016-09-18T20:24:47.351Z,"    0"
2016-09-18T20:29:43.726Z,"    0"
2016-09-18T20:34:40.274Z,"    0"
2016-09-18T20:39:36.927Z,"    0"
2016-09-18T20:44:33.281Z,"    0"
2016-09-18T20:49:30.094Z,"    0"
2016-09-18T20:54:26.577Z,"    0"
2016-09-18T20:59:23.200Z,"    0"
2016-09-18T21:04:19.802Z,"    0"
2016-09-18T21:09:16.220Z,"    0"
2016-09-18T21:14:12.802Z,"    0"
2016-09-18T21:19:09.478Z,"    0"
2016-09-18T21:24:05.917Z,"    0"
2016-09-18T21:29:03.027Z,"    0"
2016-09-18T21:34:00.013Z,"    0"
2016-09-18T21:38:56.839Z,"    0"
2016-09-18T21:43:53.386Z,"    0"
2016-09-18T21:48:50.864Z,"    0"
2016-09-18T21:53:47.043Z,"    0"
2016-09-18T21:58:43.412Z,"    0"
2016-09-18T22:03:40.318Z,"    0"
2016-09-18T22:08:36.859Z,"    0"
2016-09-18T22:13:33.704Z,"    0"
2016-09-18T22:18:30.303Z,"    0"
2016-09-18T22:23:26.775Z,"    0"
2016-09-18T22:28:23.293Z,"    0"
2016-09-18T22:33:20.425Z,"    0"
2016-09-18T22:38:17.006Z,"    0"
2016-09-18T22:43:13.625Z,"    0"
2016-09-18T22:48:10.278Z,"    0"
2016-09-18T22:53:06.694Z,"    0"
2016-09-18T22:58:03.345Z,"    0"
2016-09-18T23:03:01.720Z,"    0"
2016-09-18T23:07:59.363Z,"    0"
2016-09-18T23:12:55.939Z,"    0"
2016-09-18T23:17:52.350Z,"    0"
2016-09-18T23:22:49.793Z,"    0"
2016-09-18T23:27:47.677Z,"    0"
2016-09-18T23:32:43.870Z,"    0"
2016-09-18T23:37:40.574Z,"    0"
2016-09-18T23:42:37.364Z,"    0"
2016-09-18T23:47:33.778Z,"    0"
2016-09-18T23:52:30.397Z,"    0"
2016-09-18T23:57:27.198Z,"    0"
